Time;durP1;ratioP1;P1;durP2;ratioP2;P2;SDS_P1;SDS_P2;PMS_P1;PMS_P2;Temp;Humidity;BMP_temperature;BMP_pressure;BME280_temperature;BME280_humidity;BME280_pressure;Samples;Min_cycle;Max_cycle;Signal;HPM_P1;HPM_P2
2022/05/04 00:00:49;;;;;;;;;;;;;;;16.76;54.78;99885.69;4400877;32;20852;-84
2022/05/04 00:03:17;;;;;;;;;;;;;;;16.93;54.08;99884.63;4400236;32;19978;-83
2022/05/04 00:05:43;;;;;;;;;;;;;;;16.88;54.13;99885.56;4401039;32;19975;-83
2022/05/04 00:08:10;;;;;;;;;;;;;;;16.82;54.37;99883.03;4382109;32;19993;-84
2022/05/04 00:10:37;;;;;;;;;;;;;;;16.84;54.30;99878.63;4398918;32;20020;-84
2022/05/04 00:13:04;;;;;;;;;;;;;;;16.76;54.55;99885.69;4400704;32;19993;-84
2022/05/04 00:15:31;;;;;;;;;;;;;;;16.68;54.66;99883.09;4400074;32;20416;-84
2022/05/04 00:17:58;;;;;;;;;;;;;;;16.76;53.54;99880.47;4400277;32;20669;-84
2022/05/04 00:20:25;;;;;;;;;;;;;;;16.60;53.97;99885.78;4400464;32;20390;-84
2022/05/04 00:22:52;;;;;;;;;;;;;;;16.50;54.58;99889.34;4400768;32;20016;-84
2022/05/04 00:25:19;;;;;;;;;;;;;;;16.36;54.88;99886.78;4400102;32;19975;-84
2022/05/04 00:27:45;;;;;;;;;;;;;;;16.18;55.33;99887.81;4399482;32;20280;-83
2022/05/04 00:30:12;;;;;;;;;;;;;;;16.25;55.51;99879.03;4399770;32;19985;-83
2022/05/04 00:32:39;;;;;;;;;;;;;;;16.47;54.84;99884.13;4400694;32;20043;-84
2022/05/04 00:35:06;;;;;;;;;;;;;;;16.49;54.52;99888.44;4400800;32;20310;-83
2022/05/04 00:37:33;;;;;;;;;;;;;;;16.60;53.84;99890.12;4400603;32;19986;-84
2022/05/04 00:40:00;;;;;;;;;;;;;;;16.32;54.88;99885.09;4400265;32;20385;-84
2022/05/04 00:42:28;;;;;;;;;;;;;;;16.38;54.49;99884.19;4400329;32;19982;-83
2022/05/04 00:44:56;;;;;;;;;;;;;;;16.33;54.50;99891.19;4400861;32;20024;-83
2022/05/04 00:47:23;;;;;;;;;;;;;;;16.25;55.06;99899.94;4400844;32;20319;-84
2022/05/04 00:49:50;;;;;;;;;;;;;;;16.27;54.95;99890.38;4400051;32;19978;-83
2022/05/04 00:52:17;;;;;;;;;;;;;;;16.38;54.50;99892.03;4399150;32;19990;-84
2022/05/04 00:54:46;;;;;;;;;;;;;;;16.28;54.62;99893.84;4401040;32;20008;-83
2022/05/04 00:57:14;;;;;;;;;;;;;;;16.39;54.29;99886.78;4399900;32;19992;-83
2022/05/04 00:59:41;;;;;;;;;;;;;;;16.27;54.28;99892.06;4400710;32;19993;-83
2022/05/04 01:02:08;;;;;;;;;;;;;;;16.27;54.48;99898.19;4400553;32;19979;-84
2022/05/04 01:04:35;;;;;;;;;;;;;;;16.19;54.85;99899.97;4399757;32;19978;-84
2022/05/04 01:07:02;;;;;;;;;;;;;;;16.17;54.59;99893.87;4400389;32;20010;-84
2022/05/04 01:09:30;;;;;;;;;;;;;;;16.05;54.91;99896.59;4400342;32;20113;-84
2022/05/04 01:11:56;;;;;;;;;;;;;;;15.95;55.16;99889.66;4400125;32;20005;-84
2022/05/04 01:14:24;;;;;;;;;;;;;;;15.91;55.05;99887.94;4399423;32;20020;-84
2022/05/04 01:16:51;;;;;;;;;;;;;;;16.16;54.05;99889.53;4398334;32;19978;-84
2022/05/04 01:19:18;;;;;;;;;;;;;;;15.95;54.85;99894.87;4400239;32;20373;-84
2022/05/04 01:21:49;;;;;;;;;;;;;;;16.00;54.39;99888.75;4400356;32;20341;-84
2022/05/04 01:24:16;;;;;;;;;;;;;;;15.81;54.70;99890.59;4399710;32;19982;-83
2022/05/04 01:26:44;;;;;;;;;;;;;;;15.71;55.33;99885.44;4400122;32;20040;-83
2022/05/04 01:29:10;;;;;;;;;;;;;;;15.81;54.73;99893.19;4400060;32;19974;-83
2022/05/04 01:31:37;;;;;;;;;;;;;;;15.54;55.44;99893.28;4399921;32;19986;-84
2022/05/04 01:34:06;;;;;;;;;;;;;;;15.55;55.04;99895.03;4400511;32;20824;-83
2022/05/04 01:36:32;;;;;;;;;;;;;;;15.70;54.77;99895.00;4400238;32;19998;-83
2022/05/04 01:39:00;;;;;;;;;;;;;;;15.64;54.87;99895.00;4400280;32;19978;-83
2022/05/04 01:44:12;;;;;;;;;;;;;;;15.72;54.54;99893.22;4400479;32;19982;-83
2022/05/04 01:46:39;;;;;;;;;;;;;;;15.76;54.43;99894.97;4399018;32;20004;-83
2022/05/04 01:49:06;;;;;;;;;;;;;;;15.65;54.80;99896.72;4399965;32;20413;-83
2022/05/04 01:51:33;;;;;;;;;;;;;;;15.37;55.41;99895.06;4400043;32;20342;-83
2022/05/04 01:54:00;;;;;;;;;;;;;;;15.58;54.53;99895.00;4398468;32;20422;-83
2022/05/04 01:56:26;;;;;;;;;;;;;;;15.49;54.67;99901.13;4399446;32;19987;-83
2022/05/04 01:58:54;;;;;;;;;;;;;;;15.52;54.46;99895.91;4399360;32;19974;-83
2022/05/04 02:01:20;;;;;;;;;;;;;;;15.39;54.96;99893.34;4399932;32;20370;-83
2022/05/04 02:03:48;;;;;;;;;;;;;;;15.43;54.57;99884.63;4400347;32;20331;-83
2022/05/04 02:06:15;;;;;;;;;;;;;;;15.26;55.15;99892.50;4401429;32;20050;-83
2022/05/04 02:08:41;;;;;;;;;;;;;;;15.12;55.49;99895.09;4399733;32;20049;-84
2022/05/04 02:11:08;;;;;;;;;;;;;;;15.18;55.02;99883.81;4399318;32;19990;-83
2022/05/04 02:13:35;;;;;;;;;;;;;;;15.25;54.90;99893.34;4406518;32;20029;-84
2022/05/04 02:16:02;;;;;;;;;;;;;;;15.26;54.37;99890.75;4400476;32;20336;-84
2022/05/04 02:18:29;;;;;;;;;;;;;;;15.32;53.93;99888.13;4400781;32;20407;-83
2022/05/04 02:20:56;;;;;;;;;;;;;;;15.23;54.34;99882.94;4401550;32;20042;-83
2022/05/04 02:23:23;;;;;;;;;;;;;;;14.95;55.46;99886.44;4401098;32;20449;-83
2022/05/04 02:25:50;;;;;;;;;;;;;;;15.10;55.01;99886.44;4401381;32;20303;-83
2022/05/04 02:28:17;;;;;;;;;;;;;;;14.77;55.84;99888.22;4401558;32;19982;-84
2022/05/04 02:30:44;;;;;;;;;;;;;;;14.94;55.07;99895.16;4399530;32;20343;-84
2022/05/04 02:33:12;;;;;;;;;;;;;;;14.84;55.12;99891.69;4400248;32;19986;-84
2022/05/04 02:38:24;;;;;;;;;;;;;;;14.86;55.13;99893.41;4404285;32;20028;-83
2022/05/04 02:40:51;;;;;;;;;;;;;;;14.94;54.90;99895.16;4393296;32;19990;-83
2022/05/04 02:43:18;;;;;;;;;;;;;;;14.97;54.50;99896.00;4401275;32;20049;-83
2022/05/04 02:45:45;;;;;;;;;;;;;;;15.03;54.56;99897.75;4412475;32;19990;-83
2022/05/04 02:48:12;;;;;;;;;;;;;;;14.87;55.32;99902.97;4388031;32;20020;-83
2022/05/04 02:50:39;;;;;;;;;;;;;;;14.93;55.14;99902.06;4385961;32;20104;-83
2022/05/04 02:53:06;;;;;;;;;;;;;;;15.00;54.76;99902.97;4386383;32;19990;-84
2022/05/04 02:55:33;;;;;;;;;;;;;;;15.02;54.87;99903.81;4397065;32;19986;-83
2022/05/04 02:58:00;;;;;;;;;;;;;;;14.83;55.48;99898.59;4386696;32;19974;-83
2022/05/04 03:00:27;;;;;;;;;;;;;;;14.89;55.01;99903.81;4384792;32;19983;-83
2022/05/04 03:02:54;;;;;;;;;;;;;;;14.91;55.27;99902.97;4384293;32;19990;-83
2022/05/04 03:05:21;;;;;;;;;;;;;;;14.93;55.12;99898.59;4386414;32;19983;-83
2022/05/04 03:07:48;;;;;;;;;;;;;;;14.92;55.10;99896.88;4397232;32;20021;-84
2022/05/04 03:10:15;;;;;;;;;;;;;;;14.70;55.51;99898.62;4385450;32;20001;-83
2022/05/04 03:12:42;;;;;;;;;;;;;;;14.93;54.80;99898.59;4386200;32;20037;-83
2022/05/04 03:15:09;;;;;;;;;;;;;;;14.83;54.87;99896.00;4393168;32;19982;-82
2022/05/04 03:17:37;;;;;;;;;;;;;;;14.74;55.18;99903.84;4406038;32;20009;-83
2022/05/04 03:20:05;;;;;;;;;;;;;;;14.59;55.74;99898.62;4401046;32;19986;-83
2022/05/04 03:22:34;;;;;;;;;;;;;;;14.64;55.46;99902.09;4396630;32;20797;-83
2022/05/04 03:25:04;;;;;;;;;;;;;;;14.87;54.35;99910.78;4403054;32;20061;-83
2022/05/04 03:27:31;;;;;;;;;;;;;;;14.76;54.76;99904.69;4415015;32;20069;-83
2022/05/04 03:30:02;;;;;;;;;;;;;;;14.45;55.74;99906.38;4421909;32;20346;-83
2022/05/04 03:32:29;;;;;;;;;;;;;;;14.68;55.30;99909.06;4416359;32;19996;-84
2022/05/04 03:34:56;;;;;;;;;;;;;;;14.86;54.41;99914.25;4416570;32;19990;-84
2022/05/04 03:37:23;;;;;;;;;;;;;;;14.50;55.45;99922.03;4414673;32;20012;-83
2022/05/04 03:39:50;;;;;;;;;;;;;;;14.49;55.52;99917.69;4427679;32;20003;-84
2022/05/04 03:42:17;;;;;;;;;;;;;;;14.64;55.07;99917.72;4416587;32;19978;-83
2022/05/04 03:44:44;;;;;;;;;;;;;;;14.35;55.93;99921.12;4416460;32;19977;-83
2022/05/04 03:47:11;;;;;;;;;;;;;;;14.57;55.28;99926.41;4416408;32;19966;-84
2022/05/04 03:49:37;;;;;;;;;;;;;;;14.48;55.98;99927.22;4416348;32;19978;-83
2022/05/04 03:52:05;;;;;;;;;;;;;;;14.49;55.84;99928.09;4415854;32;19986;-83
2022/05/04 03:54:32;;;;;;;;;;;;;;;14.24;56.49;99925.44;4406917;32;20350;-83
2022/05/04 03:56:58;;;;;;;;;;;;;;;14.54;55.74;99924.66;4405987;32;19984;-83
2022/05/04 03:59:25;;;;;;;;;;;;;;;14.42;56.28;99928.09;4412148;32;20108;-84
2022/05/04 04:01:52;;;;;;;;;;;;;;;14.58;56.05;99934.22;4400870;32;19992;-84
2022/05/04 04:04:19;;;;;;;;;;;;;;;14.62;56.01;99928.16;4400924;32;20033;-83
2022/05/04 04:06:46;;;;;;;;;;;;;;;14.59;56.10;99924.69;4387904;32;19992;-83
2022/05/04 04:09:13;;;;;;;;;;;;;;;14.62;56.34;99935.09;4400184;32;20008;-83
2022/05/04 04:11:40;;;;;;;;;;;;;;;14.61;56.28;99933.34;4401186;32;20028;-83
2022/05/04 04:14:07;;;;;;;;;;;;;;;14.60;56.29;99934.22;4400292;32;20009;-83
2022/05/04 04:16:34;;;;;;;;;;;;;;;14.77;55.97;99929.00;4400000;32;19986;-83
2022/05/04 04:19:01;;;;;;;;;;;;;;;14.65;56.41;99940.31;4401180;32;20033;-83
2022/05/04 04:24:14;;;;;;;;;;;;;;;14.53;56.91;99951.56;4400748;32;19978;-88
2022/05/04 04:26:41;;;;;;;;;;;;;;;14.65;56.76;99945.53;4400187;32;20046;-88
2022/05/04 04:29:09;;;;;;;;;;;;;;;14.71;56.67;99942.03;4400336;32;19985;-85
2022/05/04 04:31:36;;;;;;;;;;;;;;;14.82;56.31;99942.94;4400361;32;19986;-85
2022/05/04 04:34:03;;;;;;;;;;;;;;;14.70;56.88;99954.19;4399943;32;20287;-85
2022/05/04 04:36:35;;;;;;;;;;;;;;;14.79;56.85;99949.00;4397629;32;19970;-85
2022/05/04 04:39:02;;;;;;;;;;;;;;;14.74;56.90;99955.97;4400375;32;19971;-85
2022/05/04 04:41:31;;;;;;;;;;;;;;;14.79;56.88;99954.22;4399452;32;19990;-86
2022/05/04 04:43:58;;;;;;;;;;;;;;;14.57;57.58;99960.25;4399925;32;19994;-85
2022/05/04 04:46:24;;;;;;;;;;;;;;;14.70;57.34;99959.41;4400730;32;19998;-85
2022/05/04 04:48:51;;;;;;;;;;;;;;;14.49;58.15;99954.16;4400318;32;19973;-87
2022/05/04 04:51:18;;;;;;;;;;;;;;;14.88;56.95;99963.78;4399615;32;20032;-87
2022/05/04 04:53:47;;;;;;;;;;;;;;;14.88;57.59;99953.34;4400501;32;19990;-85
2022/05/04 04:56:14;;;;;;;;;;;;;;;15.01;57.34;99959.44;4394574;32;19998;-87
2022/05/04 04:58:41;;;;;;;;;;;;;;;15.11;57.44;99961.16;4400315;32;19970;-89
2022/05/04 05:01:08;;;;;;;;;;;;;;;15.09;57.85;99958.56;4400700;32;20012;-88
2022/05/04 05:03:36;;;;;;;;;;;;;;;15.29;57.19;99963.78;4399882;32;19983;-86
2022/05/04 05:06:03;;;;;;;;;;;;;;;15.49;56.68;99962.87;4399930;32;19971;-87
2022/05/04 05:08:33;;;;;;;;;;;;;;;15.43;57.46;99966.34;4400470;32;19989;-87
2022/05/04 05:11:02;;;;;;;;;;;;;;;15.66;57.00;99970.66;4400139;32;20332;-86
2022/05/04 05:13:29;;;;;;;;;;;;;;;15.67;57.21;99965.47;4400052;32;20441;-85
2022/05/04 05:16:07;;;;;;;;;;;;;;;15.88;56.77;99966.25;4399186;32;19988;-88
2022/05/04 05:18:35;;;;;;;;;;;;;;;16.00;56.68;99976.66;4399814;32;20291;-86
2022/05/04 05:21:02;;;;;;;;;;;;;;;16.07;56.78;99973.16;4385330;32;19994;-87
2022/05/04 05:23:29;;;;;;;;;;;;;;;16.06;57.05;99971.44;4398191;32;19990;-87
2022/05/04 05:25:56;;;;;;;;;;;;;;;15.95;58.11;99973.19;4397649;32;20054;-87
2022/05/04 05:28:23;;;;;;;;;;;;;;;15.99;58.46;99969.72;4400112;32;20008;-86
2022/05/04 05:30:50;;;;;;;;;;;;;;;16.24;57.85;99967.84;4397901;32;20028;-86
2022/05/04 05:33:17;;;;;;;;;;;;;;;16.42;57.66;99964.28;4399812;32;20387;-86
2022/05/04 05:35:44;;;;;;;;;;;;;;;16.56;57.61;99966.78;4373949;32;20007;-86
2022/05/04 05:38:11;;;;;;;;;;;;;;;16.79;57.14;99966.69;4391005;32;20020;-86
2022/05/04 05:40:38;;;;;;;;;;;;;;;17.02;55.97;99971.75;4384575;32;20002;-86
2022/05/04 05:43:05;;;;;;;;;;;;;;;16.89;56.71;99973.59;4384243;32;19983;-85
2022/05/04 05:45:31;;;;;;;;;;;;;;;16.90;56.71;99972.69;4391546;32;20077;-86
2022/05/04 05:48:01;;;;;;;;;;;;;;;17.14;56.33;99972.50;4393683;32;20355;-85
2022/05/04 05:50:30;;;;;;;;;;;;;;;17.27;55.72;99969.78;4387582;32;19997;-84
2022/05/04 05:52:56;;;;;;;;;;;;;;;17.24;55.47;99967.22;4385546;32;20054;-84
2022/05/04 05:55:24;;;;;;;;;;;;;;;17.55;54.82;99963.41;4392019;32;19994;-85
2022/05/04 05:57:50;;;;;;;;;;;;;;;17.54;54.95;99966.03;4384908;32;19982;-85
2022/05/04 06:00:17;;;;;;;;;;;;;;;17.55;54.52;99979.13;4388738;32;20074;-85
2022/05/04 06:02:47;;;;;;;;;;;;;;;17.64;54.34;99973.78;4389392;32;20336;-85
2022/05/04 06:05:14;;;;;;;;;;;;;;;17.78;54.45;99975.41;4384761;32;20033;-85
2022/05/04 06:07:41;;;;;;;;;;;;;;;17.85;54.08;99982.31;4388174;32;19994;-86
2022/05/04 06:10:08;;;;;;;;;;;;;;;18.13;54.01;99985.47;4393090;32;19998;-84
2022/05/04 06:12:35;;;;;;;;;;;;;;;18.17;54.45;99988.91;4390353;32;19994;-85
2022/05/04 06:15:02;;;;;;;;;;;;;;;18.25;53.98;99992.28;4393402;32;19994;-84
2022/05/04 06:17:30;;;;;;;;;;;;;;;18.35;53.25;99983.44;4388153;32;20031;-88
2022/05/04 06:19:58;;;;;;;;;;;;;;;18.46;54.03;99992.00;4383357;32;19995;-86
2022/05/04 06:22:24;;;;;;;;;;;;;;;18.56;54.16;99993.63;4384257;32;20042;-84
2022/05/04 06:24:51;;;;;;;;;;;;;;;18.64;53.93;99992.66;4384399;32;20069;-85
2022/05/04 06:27:18;;;;;;;;;;;;;;;18.84;53.31;99990.62;4383912;32;19978;-87
2022/05/04 06:35:20;;;;;;;;;;;;;;;19.45;51.03;99986.97;4384183;32;19990;-87
2022/05/04 06:37:47;;;;;;;;;;;;;;;19.85;49.56;99981.03;4365127;32;19989;-86
2022/05/04 06:40:14;;;;;;;;;;;;;;;19.86;49.39;99988.00;4405013;32;20004;-86
2022/05/04 06:42:41;;;;;;;;;;;;;;;20.31;48.77;99987.09;4395650;32;20049;-86
2022/05/04 06:45:08;;;;;;;;;;;;;;;20.74;48.50;99989.69;4398992;32;19978;-86
2022/05/04 06:47:35;;;;;;;;;;;;;;;21.12;47.54;99985.25;4402436;32;20268;-86
2022/05/04 06:50:03;;;;;;;;;;;;;;;21.31;47.73;99983.00;4386671;32;20086;-86
2022/05/04 06:52:33;;;;;;;;;;;;;;;21.57;44.62;99992.94;4401016;32;19986;-86
2022/05/04 06:55:00;;;;;;;;;;;;;;;21.78;44.21;99987.06;4401594;32;20017;-86
2022/05/04 06:57:28;;;;;;;;;;;;;;;22.09;42.68;99986.19;4400641;32;20127;-86
2022/05/04 06:59:57;;;;;;;;;;;;;;;22.26;40.97;99983.94;4401289;32;19982;-86
2022/05/04 07:02:24;;;;;;;;;;;;;;;22.54;40.32;99983.13;4400013;32;20041;-86
2022/05/04 07:04:50;;;;;;;;;;;;;;;22.30;42.69;99979.44;4400286;32;20725;-88
2022/05/04 07:07:18;;;;;;;;;;;;;;;22.95;41.40;99979.22;4400383;32;19979;-85
2022/05/04 07:09:44;;;;;;;;;;;;;;;23.10;41.74;99977.87;4399757;32;20057;-86
2022/05/04 07:12:11;;;;;;;;;;;;;;;23.13;37.58;99967.19;4400693;32;19990;-86
2022/05/04 07:14:38;;;;;;;;;;;;;;;22.61;39.96;99973.25;4400311;32;20012;-85
2022/05/04 07:17:05;;;;;;;;;;;;;;;22.52;42.34;99982.31;4400244;32;20004;-86
2022/05/04 07:19:32;;;;;;;;;;;;;;;22.52;41.53;99977.87;4400762;32;19978;-85
2022/05/04 07:21:59;;;;;;;;;;;;;;;22.56;42.19;99976.03;4400917;32;19986;-85
2022/05/04 07:24:26;;;;;;;;;;;;;;;22.49;40.41;99980.66;4402068;32;20001;-86
2022/05/04 07:26:53;;;;;;;;;;;;;;;22.72;40.40;99985.22;4401945;32;20831;-86
2022/05/04 07:29:20;;;;;;;;;;;;;;;22.62;40.41;99980.25;4400992;32;19990;-85
2022/05/04 07:31:47;;;;;;;;;;;;;;;22.78;41.46;99996.47;4400375;32;19978;-82
2022/05/04 07:34:14;;;;;;;;;;;;;;;22.91;39.45;99987.22;4398724;32;20025;-86
2022/05/04 07:36:42;;;;;;;;;;;;;;;22.97;39.63;99987.06;4408298;32;20561;-88
2022/05/04 07:42:21;;;;;;;;;;;;;;;23.35;39.16;99982.28;4392690;32;19994;-82
2022/05/04 07:44:41;;;;;;;;;;;;;;;23.46;39.74;99990.72;4383840;32;20012;-81
2022/05/04 07:47:08;;;;;;;;;;;;;;;24.05;36.75;99982.44;4385565;32;20296;-84
2022/05/04 07:49:35;;;;;;;;;;;;;;;24.33;34.79;99984.06;4385710;32;19994;-87
2022/05/04 07:52:02;;;;;;;;;;;;;;;24.24;37.02;99979.13;4385840;32;19992;-88
2022/05/04 07:54:29;;;;;;;;;;;;;;;24.02;37.79;99989.66;4390804;32;20871;-85
2022/05/04 07:56:57;;;;;;;;;;;;;;;24.17;35.87;99983.78;4393772;32;19982;-88
2022/05/04 07:59:24;;;;;;;;;;;;;;;24.18;35.34;99992.59;4399588;32;20805;-86
2022/05/04 08:04:37;;;;;;;;;;;;;;;24.46;36.51;100001.22;4385696;32;19974;-86
2022/05/04 08:07:04;;;;;;;;;;;;;;;24.62;34.36;99998.00;4390042;32;20033;-86
2022/05/04 08:09:36;;;;;;;;;;;;;;;25.16;33.28;99997.59;4406464;32;19982;-87
2022/05/04 08:12:04;;;;;;;;;;;;;;;25.12;35.44;99989.81;4416190;32;20009;-84
2022/05/04 08:14:31;;;;;;;;;;;;;;;25.40;35.66;99993.06;4391939;32;19978;-85
2022/05/04 08:16:57;;;;;;;;;;;;;;;25.78;35.47;99985.19;4385573;32;20022;-85
2022/05/04 08:19:24;;;;;;;;;;;;;;;26.00;35.68;99994.88;4393632;32;19975;-87
2022/05/04 08:21:52;;;;;;;;;;;;;;;26.09;34.69;99994.47;4389750;32;19990;-86
2022/05/04 08:24:18;;;;;;;;;;;;;;;25.94;30.98;99986.28;4385810;32;20008;-86
2022/05/04 08:26:46;;;;;;;;;;;;;;;26.35;33.24;99991.47;4387851;32;19982;-84
2022/05/04 08:29:12;;;;;;;;;;;;;;;26.77;32.18;99990.44;4397139;32;19991;-85
2022/05/04 08:31:39;;;;;;;;;;;;;;;26.64;30.05;99989.25;4400502;32;20736;-86
2022/05/04 08:34:07;;;;;;;;;;;;;;;26.28;32.12;99990.03;4411494;32;19989;-85
2022/05/04 08:36:37;;;;;;;;;;;;;;;25.67;33.19;99990.12;4394354;32;20091;-85
2022/05/04 08:39:06;;;;;;;;;;;;;;;26.07;33.64;99998.97;4393533;32;20036;-85
2022/05/04 08:41:35;;;;;;;;;;;;;;;25.72;33.99;99999.63;4396955;32;20440;-87
2022/05/04 08:44:03;;;;;;;;;;;;;;;26.11;31.34;100008.53;4417214;32;20056;-87
2022/05/04 08:46:32;;;;;;;;;;;;;;;25.90;34.82;100005.06;4415493;32;19999;-87
2022/05/04 08:48:59;;;;;;;;;;;;;;;25.83;35.54;99999.16;4414805;32;19981;-84
2022/05/04 08:51:25;;;;;;;;;;;;;;;26.39;34.75;100001.03;4415969;32;20071;-87
2022/05/04 08:53:53;;;;;;;;;;;;;;;26.97;30.20;99999.22;4414125;32;19969;-89
2022/05/04 08:56:20;;;;;;;;;;;;;;;27.04;30.69;100000.63;4413424;32;20032;-86
2022/05/04 08:58:47;;;;;;;;;;;;;;;27.29;29.33;100001.16;4413744;32;20053;-85
2022/05/04 09:01:13;;;;;;;;;;;;;;;26.53;31.14;99999.56;4415654;32;20041;-84
2022/05/04 09:03:41;;;;;;;;;;;;;;;26.52;28.43;99997.84;4414151;32;19970;-86
2022/05/04 09:06:07;;;;;;;;;;;;;;;26.66;29.07;99995.38;4415652;32;19996;-87
2022/05/04 09:08:54;;;;;;;;;;;;;;;26.27;30.03;99993.63;4415528;32;19985;-87
2022/05/04 09:11:24;;;;;;;;;;;;;;;25.75;31.77;100001.28;4405470;32;20017;-86
2022/05/04 09:13:51;;;;;;;;;;;;;;;25.85;31.77;99997.31;4412023;32;19981;-89
2022/05/04 09:16:32;;;;;;;;;;;;;;;26.31;30.78;100000.50;4412356;32;20116;-88
2022/05/04 09:19:00;;;;;;;;;;;;;;;26.05;30.83;100001.72;4426155;32;19982;-89
2022/05/04 09:21:26;;;;;;;;;;;;;;;26.13;30.24;100001.34;4412538;32;19982;-88
2022/05/04 09:23:53;;;;;;;;;;;;;;;26.11;29.96;99998.78;4411631;32;19996;-88
2022/05/04 09:26:20;;;;;;;;;;;;;;;26.34;30.12;100002.16;4415452;32;20734;-88
2022/05/04 09:28:51;;;;;;;;;;;;;;;25.79;33.74;99997.53;4425202;32;20347;-88
2022/05/04 09:31:23;;;;;;;;;;;;;;;25.98;35.13;99998.47;4425076;32;20032;-88
2022/05/04 09:34:03;;;;;;;;;;;;;;;26.17;36.35;99997.66;4395278;32;19994;-89
2022/05/04 09:36:32;;;;;;;;;;;;;;;25.81;34.71;100001.00;4393550;32;20041;-88
2022/05/04 09:47:39;;;;;;;;;;;;;;;27.37;31.90;99993.63;4395366;32;19985;-88
2022/05/04 09:50:08;;;;;;;;;;;;;;;27.41;31.26;99996.13;4387069;32;20054;-88
2022/05/04 09:52:48;;;;;;;;;;;;;;;27.78;29.92;99987.16;4391323;32;20013;-87
2022/05/04 09:55:24;;;;;;;;;;;;;;;27.29;30.72;99984.34;4396282;32;20299;-88
2022/05/04 09:57:52;;;;;;;;;;;;;;;27.55;29.36;99980.34;4381966;32;20391;-88
2022/05/04 10:00:21;;;;;;;;;;;;;;;27.47;29.76;99977.22;4386413;32;20725;-87
2022/05/04 10:02:48;;;;;;;;;;;;;;;27.42;29.63;99984.59;4389986;32;20041;-87
2022/05/04 10:05:16;;;;;;;;;;;;;;;27.06;27.91;99974.84;4378637;32;19997;-87
2022/05/04 10:07:43;;;;;;;;;;;;;;;27.18;27.85;99973.38;4397279;32;19978;-88
2022/05/04 10:10:11;;;;;;;;;;;;;;;26.98;28.31;99974.34;4407119;32;20028;-87
2022/05/04 10:12:44;;;;;;;;;;;;;;;26.63;29.60;99976.94;4399172;32;20018;-86
2022/05/04 10:15:23;;;;;;;;;;;;;;;26.16;30.50;99972.03;4397292;32;20037;-87
2022/05/04 10:18:05;;;;;;;;;;;;;;;26.02;31.92;99967.38;4365303;32;20042;-88
2022/05/04 10:20:35;;;;;;;;;;;;;;;25.59;30.17;99960.41;4370374;32;20005;-88
2022/05/04 10:23:08;;;;;;;;;;;;;;;25.37;32.45;99964.03;4379357;32;19990;-88
2022/05/04 10:25:35;;;;;;;;;;;;;;;25.60;31.78;99954.22;4375161;32;19987;-88
2022/05/04 10:28:05;;;;;;;;;;;;;;;25.35;31.92;99957.91;4370697;32;19998;-88
2022/05/04 10:30:34;;;;;;;;;;;;;;;25.62;30.50;99957.63;4378372;32;19996;-86
2022/05/04 10:33:02;;;;;;;;;;;;;;;25.47;31.25;99965.34;4381322;32;20106;-85
2022/05/04 10:35:31;;;;;;;;;;;;;;;25.70;30.00;99960.81;4386935;32;19970;-86
2022/05/04 10:37:58;;;;;;;;;;;;;;;25.27;31.57;99960.03;4376436;32;20041;-87
2022/05/04 10:40:40;;;;;;;;;;;;;;;25.05;33.68;99968.88;4385121;32;20041;-84
2022/05/04 10:43:09;;;;;;;;;;;;;;;24.62;38.13;99971.53;4386697;32;19975;-87
2022/05/04 10:45:37;;;;;;;;;;;;;;;24.46;38.61;99974.75;4380549;32;19975;-85
2022/05/04 10:48:12;;;;;;;;;;;;;;;23.95;44.52;99967.00;4385215;32;19991;-84
2022/05/04 10:50:48;;;;;;;;;;;;;;;23.60;44.75;99972.59;4385689;32;20320;-84
2022/05/04 10:53:23;;;;;;;;;;;;;;;22.88;47.22;99977.66;4385893;32;20001;-85
2022/05/04 10:55:55;;;;;;;;;;;;;;;22.96;47.78;99980.94;4398825;32;20450;-85
2022/05/04 10:58:38;;;;;;;;;;;;;;;22.71;48.99;99983.47;4398800;32;20355;-85
2022/05/04 11:01:13;;;;;;;;;;;;;;;22.75;48.40;99977.19;4395679;32;19983;-84
2022/05/04 11:03:59;;;;;;;;;;;;;;;22.99;50.07;99969.41;4399162;32;20004;-85
2022/05/04 11:06:26;;;;;;;;;;;;;;;22.58;53.45;99979.47;4397113;32;19978;-85
2022/05/04 11:08:56;;;;;;;;;;;;;;;21.92;53.95;99977.87;4401650;32;20032;-84
2022/05/04 11:11:23;;;;;;;;;;;;;;;22.48;52.14;99972.75;4416796;32;20103;-86
2022/05/04 11:13:50;;;;;;;;;;;;;;;22.53;51.90;99965.59;4415772;32;19998;-85
2022/05/04 11:16:19;;;;;;;;;;;;;;;22.75;51.70;99971.06;4415094;32;19978;-86
2022/05/04 11:18:45;;;;;;;;;;;;;;;22.76;50.89;99964.84;4412592;32;20527;-86
2022/05/04 11:21:13;;;;;;;;;;;;;;;22.59;50.34;99964.50;4415876;32;19989;-86
2022/05/04 11:23:44;;;;;;;;;;;;;;;22.87;49.04;99960.06;4427658;32;20000;-86
2022/05/04 11:26:18;;;;;;;;;;;;;;;22.86;47.81;99957.50;4414837;32;20004;-85
2022/05/04 11:28:45;;;;;;;;;;;;;;;22.59;50.40;99964.50;4414591;32;19986;-84
2022/05/04 11:31:12;;;;;;;;;;;;;;;22.87;47.33;99959.22;4416196;32;19982;-85
2022/05/04 11:33:43;;;;;;;;;;;;;;;22.83;47.62;99955.81;4399996;32;20028;-84
2022/05/04 11:36:10;;;;;;;;;;;;;;;22.59;51.82;99960.12;4398985;32;19974;-85
2022/05/04 11:38:37;;;;;;;;;;;;;;;23.02;50.23;99958.75;4401590;32;20048;-86
2022/05/04 11:41:05;;;;;;;;;;;;;;;23.12;47.96;99960.16;4399720;32;19978;-85
2022/05/04 11:43:35;;;;;;;;;;;;;;;23.04;46.64;99959.56;4399781;32;19988;-85
2022/05/04 11:46:09;;;;;;;;;;;;;;;23.07;47.43;99956.84;4412635;32;19978;-86
2022/05/04 11:48:47;;;;;;;;;;;;;;;23.02;47.77;99953.47;4400467;32;19986;-82
2022/05/04 11:51:15;;;;;;;;;;;;;;;22.89;49.25;99952.12;4400972;32;19990;-84
2022/05/04 11:53:43;;;;;;;;;;;;;;;22.80;48.77;99957.69;4387435;32;20334;-83
2022/05/04 11:56:11;;;;;;;;;;;;;;;22.79;48.97;99955.97;4410472;32;20001;-85
2022/05/04 11:58:42;;;;;;;;;;;;;;;22.98;50.51;99957.13;4396438;32;19987;-86
2022/05/04 12:01:08;;;;;;;;;;;;;;;22.59;52.12;99960.12;4396215;32;20022;-88
2022/05/04 12:03:37;;;;;;;;;;;;;;;22.84;52.02;99964.59;4398439;32;20286;-87
2022/05/04 12:06:05;;;;;;;;;;;;;;;22.74;53.48;99964.03;4410159;32;19998;-87
2022/05/04 12:08:31;;;;;;;;;;;;;;;22.78;52.63;99960.38;4395268;32;20032;-86
2022/05/04 12:10:58;;;;;;;;;;;;;;;22.67;53.91;99967.78;4410242;32;19987;-86
2022/05/04 12:13:26;;;;;;;;;;;;;;;22.76;53.64;99972.78;4409321;32;20002;-86
2022/05/04 12:15:54;;;;;;;;;;;;;;;22.48;53.01;99978.03;4409501;32;20392;-86
2022/05/04 12:18:26;;;;;;;;;;;;;;;22.50;52.37;99977.09;4396056;32;20259;-87
2022/05/04 12:20:53;;;;;;;;;;;;;;;22.56;51.41;99975.16;4396331;32;20020;-89
2022/05/04 12:23:20;;;;;;;;;;;;;;;22.50;51.21;99973.59;4396411;32;20035;-87
2022/05/04 12:25:47;;;;;;;;;;;;;;;22.59;52.00;99986.50;4393482;32;20384;-88
2022/05/04 12:28:13;;;;;;;;;;;;;;;22.28;51.20;99984.78;4407822;32;20021;-87
2022/05/04 12:33:26;;;;;;;;;;;;;;;;;;4393731;32;20394;-85
2022/05/04 12:35:56;;;;;;;;;;;;;;;21.97;49.36;99965.47;4398220;32;19982;-81
2022/05/04 12:38:24;;;;;;;;;;;;;;;22.11;48.79;99963.28;4391917;32;19990;-79
2022/05/04 12:40:52;;;;;;;;;;;;;;;21.79;51.66;99957.19;4390625;32;19998;-82
2022/05/04 12:43:30;;;;;;;;;;;;;;;22.05;51.73;99950.28;4392239;32;19998;-85
2022/05/04 12:45:57;;;;;;;;;;;;;;;21.93;52.96;99950.66;4394159;32;22560;-83
2022/05/04 12:48:29;;;;;;;;;;;;;;;22.05;54.15;99937.12;4396362;32;19994;-85
2022/05/04 12:50:56;;;;;;;;;;;;;;;21.89;54.99;99935.81;4396862;32;20045;-85
2022/05/04 12:53:24;;;;;;;;;;;;;;;21.93;53.79;99927.78;4396708;32;19982;-85
2022/05/04 12:58:37;;;;;;;;;;;;;;;21.90;54.04;99921.75;4396822;32;20033;-86
2022/05/04 13:01:04;;;;;;;;;;;;;;;21.99;52.96;99918.84;4395653;32;20073;-86
2022/05/04 13:03:34;;;;;;;;;;;;;;;22.08;53.43;99921.22;4394923;32;20107;-87
2022/05/04 13:06:01;;;;;;;;;;;;;;;22.34;53.67;99922.22;4394426;32;20459;-86
2022/05/04 13:08:28;;;;;;;;;;;;;;;22.39;54.12;99920.28;4394974;32;20002;-85
2022/05/04 13:10:55;;;;;;;;;;;;;;;22.45;53.92;99920.97;4395558;32;19983;-86
2022/05/04 13:13:27;;;;;;;;;;;;;;;22.64;52.66;99915.97;4396636;32;19998;-86
2022/05/04 13:15:54;;;;;;;;;;;;;;;22.79;49.52;99913.75;4395294;32;20029;-86
2022/05/04 13:18:22;;;;;;;;;;;;;;;22.98;46.99;99920.19;4396070;32;20350;-87
2022/05/04 13:20:49;;;;;;;;;;;;;;;23.18;47.35;99917.72;4395870;32;19986;-88
2022/05/04 13:23:16;;;;;;;;;;;;;;;23.10;47.08;99918.88;4396816;32;20024;-87
2022/05/04 13:25:43;;;;;;;;;;;;;;;23.34;43.33;99919.81;4396684;32;19986;-87